sensor_id;sensor_type;location;lat;lon;timestamp;pressure;altitude;pressure_sealevel;temperature;humidity
40205;BME280;26963;42.666;23.366;2023-02-28T00:00:19;95399.81;;;9.01;68.71
40205;BME280;26963;42.666;23.366;2023-02-28T00:02:46;95342.25;;;8.59;68.76
40205;BME280;26963;42.666;23.366;2023-02-28T00:05:13;95410.22;;;8.97;69.98
40205;BME280;26963;42.666;23.366;2023-02-28T00:07:39;95410.75;;;9.00;69.03
40205;BME280;26963;42.666;23.366;2023-02-28T00:10:06;95248.97;;;8.07;69.73
40205;BME280;26963;42.666;23.366;2023-02-28T00:12:34;95394.19;;;9.08;68.73
40205;BME280;26963;42.666;23.366;2023-02-28T00:15:00;95406.44;;;9.19;69.30
40205;BME280;26963;42.666;23.366;2023-02-28T00:17:25;95394.16;;;9.18;68.86
40205;BME280;26963;42.666;23.366;2023-02-28T00:19:51;95400.00;;;9.25;69.52
40205;BME280;26963;42.666;23.366;2023-02-28T00:22:20;95329.13;;;8.93;68.94
40205;BME280;26963;42.666;23.366;2023-02-28T00:24:46;95358.97;;;9.06;67.95
40205;BME280;26963;42.666;23.366;2023-02-28T00:27:12;95413.31;;;9.41;68.15
40205;BME280;26963;42.666;23.366;2023-02-28T00:29:37;95399.44;;;9.44;67.13
40205;BME280;26963;42.666;23.366;2023-02-28T00:32:04;95414.66;;;9.38;67.46
40205;BME280;26963;42.666;23.366;2023-02-28T00:34:30;95414.22;;;9.05;67.95
40205;BME280;26963;42.666;23.366;2023-02-28T00:36:55;95411.00;;;8.98;69.35
40205;BME280;26963;42.666;23.366;2023-02-28T00:39:23;95246.03;;;7.67;69.17
40205;BME280;26963;42.666;23.366;2023-02-28T00:41:49;95418.78;;;8.58;70.58
40205;BME280;26963;42.666;23.366;2023-02-28T00:44:14;95361.97;;;8.42;70.98
40205;BME280;26963;42.666;23.366;2023-02-28T00:46:40;95411.88;;;8.73;69.80
40205;BME280;26963;42.666;23.366;2023-02-28T00:49:05;95405.19;;;8.75;69.89
40205;BME280;26963;42.666;23.366;2023-02-28T00:51:31;95406.53;;;8.73;69.97
40205;BME280;26963;42.666;23.366;2023-02-28T00:53:59;95333.97;;;8.14;70.43
40205;BME280;26963;42.666;23.366;2023-02-28T00:56:24;95407.03;;;8.44;70.80
40205;BME280;26963;42.666;23.366;2023-02-28T00:58:50;95376.63;;;8.14;71.52
40205;BME280;26963;42.666;23.366;2023-02-28T01:01:15;95395.00;;;8.15;71.51
40205;BME280;26963;42.666;23.366;2023-02-28T01:03:41;95424.88;;;8.33;71.57
40205;BME280;26963;42.666;23.366;2023-02-28T01:06:07;95280.63;;;7.42;71.58
40205;BME280;26963;42.666;23.366;2023-02-28T01:08:33;95420.41;;;8.49;70.95
40205;BME280;26963;42.666;23.366;2023-02-28T01:11:07;95415.34;;;8.53;70.68
40205;BME280;26963;42.666;23.366;2023-02-28T01:13:33;95399.84;;;8.55;70.47
40205;BME280;26963;42.666;23.366;2023-02-28T01:15:58;95422.00;;;8.71;69.36
40205;BME280;26963;42.666;23.366;2023-02-28T01:18:24;95395.84;;;8.68;69.25
40205;BME280;26963;42.666;23.366;2023-02-28T01:20:49;95407.59;;;8.82;69.07
40205;BME280;26963;42.666;23.366;2023-02-28T01:23:18;95394.75;;;8.84;68.34
40205;BME280;26963;42.666;23.366;2023-02-28T01:25:44;95394.22;;;8.87;68.77
40205;BME280;26963;42.666;23.366;2023-02-28T01:28:10;95401.69;;;8.85;69.23
40205;BME280;26963;42.666;23.366;2023-02-28T01:30:36;95363.84;;;8.78;69.22
40205;BME280;26963;42.666;23.366;2023-02-28T01:33:01;95354.50;;;8.75;68.68
40205;BME280;26963;42.666;23.366;2023-02-28T01:35:27;95397.41;;;9.10;68.24
40205;BME280;26963;42.666;23.366;2023-02-28T01:37:52;95357.66;;;8.88;67.98
40205;BME280;26963;42.666;23.366;2023-02-28T01:40:18;95390.72;;;9.12;67.33
40205;BME280;26963;42.666;23.366;2023-02-28T01:42:43;95356.63;;;8.84;66.90
40205;BME280;26963;42.666;23.366;2023-02-28T01:45:23;95393.66;;;9.06;66.83
40205;BME280;26963;42.666;23.366;2023-02-28T01:47:52;95399.53;;;9.08;67.81
40205;BME280;26963;42.666;23.366;2023-02-28T01:50:25;95332.09;;;8.61;67.80
40205;BME280;26963;42.666;23.366;2023-02-28T01:52:54;95344.63;;;8.76;67.05
40205;BME280;26963;42.666;23.366;2023-02-28T01:55:21;95413.94;;;9.17;67.75
40205;BME280;26963;42.666;23.366;2023-02-28T01:57:51;95255.63;;;8.15;67.21
40205;BME280;26963;42.666;23.366;2023-02-28T02:00:21;95410.16;;;9.18;67.55
40205;BME280;26963;42.666;23.366;2023-02-28T02:02:51;95407.00;;;9.16;67.36
40205;BME280;26963;42.666;23.366;2023-02-28T02:05:21;95397.09;;;9.17;67.22
40205;BME280;26963;42.666;23.366;2023-02-28T02:07:50;95390.47;;;8.98;67.62
40205;BME280;26963;42.666;23.366;2023-02-28T02:10:31;95340.38;;;8.70;67.95
40205;BME280;26963;42.666;23.366;2023-02-28T02:13:30;95409.13;;;9.14;67.38
40205;BME280;26963;42.666;23.366;2023-02-28T02:27:25;95396.31;;;9.16;67.73
40205;BME280;26963;42.666;23.366;2023-02-28T02:41:12;95399.03;;;9.01;67.30
40205;BME280;26963;42.666;23.366;2023-02-28T02:44:06;95402.19;;;9.03;67.60
40205;BME280;26963;42.666;23.366;2023-02-28T02:46:33;95420.34;;;9.11;67.69
40205;BME280;26963;42.666;23.366;2023-02-28T02:49:01;95418.75;;;9.10;67.14
40205;BME280;26963;42.666;23.366;2023-02-28T02:51:30;95328.13;;;8.48;66.87
40205;BME280;26963;42.666;23.366;2023-02-28T02:54:19;95404.13;;;8.87;67.35
40205;BME280;26963;42.666;23.366;2023-02-28T02:56:48;95418.78;;;8.89;67.45
40205;BME280;26963;42.666;23.366;2023-02-28T02:59:17;95422.78;;;8.81;67.71
40205;BME280;26963;42.666;23.366;2023-02-28T03:01:49;95428.94;;;8.82;67.94
40205;BME280;26963;42.666;23.366;2023-02-28T03:04:22;95433.72;;;8.85;68.18
40205;BME280;26963;42.666;23.366;2023-02-28T03:06:50;95425.44;;;8.71;67.81
40205;BME280;26963;42.666;23.366;2023-02-28T03:09:23;95430.78;;;8.81;68.31
40205;BME280;26963;42.666;23.366;2023-02-28T03:11:50;95401.72;;;8.59;67.91
40205;BME280;26963;42.666;23.366;2023-02-28T03:14:43;95450.78;;;9.00;67.89
40205;BME280;26963;42.666;23.366;2023-02-28T03:17:28;95452.13;;;9.07;67.63
40205;BME280;26963;42.666;23.366;2023-02-28T03:30:54;95427.81;;;9.14;65.89
40205;BME280;26963;42.666;23.366;2023-02-28T03:33:27;95467.56;;;9.21;66.19
40205;BME280;26963;42.666;23.366;2023-02-28T03:35:58;95470.50;;;9.19;66.74
40205;BME280;26963;42.666;23.366;2023-02-28T03:38:33;95453.47;;;9.05;66.58
40205;BME280;26963;42.666;23.366;2023-02-28T03:41:14;95430.53;;;8.73;66.90
40205;BME280;26963;42.666;23.366;2023-02-28T03:43:44;95456.94;;;8.90;66.94
40205;BME280;26963;42.666;23.366;2023-02-28T03:46:14;95468.41;;;8.70;67.76
40205;BME280;26963;42.666;23.366;2023-02-28T03:48:46;95466.28;;;8.72;68.12
40205;BME280;26963;42.666;23.366;2023-02-28T03:51:17;95431.59;;;8.46;68.60
40205;BME280;26963;42.666;23.366;2023-02-28T03:53:47;95291.25;;;7.37;68.75
40205;BME280;26963;42.666;23.366;2023-02-28T03:56:19;95484.94;;;8.51;69.35
40205;BME280;26963;42.666;23.366;2023-02-28T04:01:33;95463.03;;;8.28;70.44
40205;BME280;26963;42.666;23.366;2023-02-28T04:04:03;95482.19;;;8.25;70.93
40205;BME280;26963;42.666;23.366;2023-02-28T04:06:31;95478.19;;;8.18;70.96
40205;BME280;26963;42.666;23.366;2023-02-28T04:08:58;95452.28;;;7.97;71.84
40205;BME280;26963;42.666;23.366;2023-02-28T04:11:33;95418.66;;;7.86;71.43
40205;BME280;26963;42.666;23.366;2023-02-28T04:14:04;95472.56;;;8.14;71.79
40205;BME280;26963;42.666;23.366;2023-02-28T04:16:31;95472.84;;;8.07;71.89
40205;BME280;26963;42.666;23.366;2023-02-28T04:18:57;95464.56;;;8.14;72.39
40205;BME280;26963;42.666;23.366;2023-02-28T04:21:33;95380.50;;;7.65;71.93
40205;BME280;26963;42.666;23.366;2023-02-28T04:23:58;95308.78;;;7.17;71.16
40205;BME280;26963;42.666;23.366;2023-02-28T04:26:29;95462.97;;;8.18;71.64
40205;BME280;26963;42.666;23.366;2023-02-28T04:28:55;95467.25;;;8.19;71.28
40205;BME280;26963;42.666;23.366;2023-02-28T04:31:23;95442.16;;;7.94;71.86
40205;BME280;26963;42.666;23.366;2023-02-28T04:33:49;95472.31;;;8.15;71.87
40205;BME280;26963;42.666;23.366;2023-02-28T04:36:15;95420.56;;;7.91;71.32
40205;BME280;26963;42.666;23.366;2023-02-28T04:38:44;95472.59;;;8.29;70.98
40205;BME280;26963;42.666;23.366;2023-02-28T04:41:10;95461.09;;;8.03;71.27
40205;BME280;26963;42.666;23.366;2023-02-28T04:43:36;95414.59;;;7.58;71.49
40205;BME280;26963;42.666;23.366;2023-02-28T04:46:03;95430.28;;;7.49;72.56
40205;BME280;26963;42.666;23.366;2023-02-28T04:48:31;95504.97;;;7.85;72.84
40205;BME280;26963;42.666;23.366;2023-02-28T04:51:01;95435.06;;;7.52;72.38
40205;BME280;26963;42.666;23.366;2023-02-28T04:53:28;95431.38;;;7.58;71.95
40205;BME280;26963;42.666;23.366;2023-02-28T04:55:54;95499.22;;;8.09;71.93
40205;BME280;26963;42.666;23.366;2023-02-28T04:58:20;95420.47;;;7.65;70.97
40205;BME280;26963;42.666;23.366;2023-02-28T05:00:48;95482.66;;;8.07;71.02
40205;BME280;26963;42.666;23.366;2023-02-28T05:03:14;95488.53;;;7.98;71.18
40205;BME280;26963;42.666;23.366;2023-02-28T05:05:39;95460.72;;;7.79;71.52
40205;BME280;26963;42.666;23.366;2023-02-28T05:08:05;95494.34;;;7.95;71.55
40205;BME280;26963;42.666;23.366;2023-02-28T05:10:31;95504.47;;;7.83;72.01
40205;BME280;26963;42.666;23.366;2023-02-28T05:12:59;95478.31;;;7.75;71.94
40205;BME280;26963;42.666;23.366;2023-02-28T05:15:25;95447.91;;;7.60;71.77
40205;BME280;26963;42.666;23.366;2023-02-28T05:17:50;95486.91;;;7.92;71.63
40205;BME280;26963;42.666;23.366;2023-02-28T05:20:16;95512.25;;;8.05;71.03
40205;BME280;26963;42.666;23.366;2023-02-28T05:22:43;95509.34;;;8.12;71.29
40205;BME280;26963;42.666;23.366;2023-02-28T05:25:13;95513.91;;;8.22;71.12
40205;BME280;26963;42.666;23.366;2023-02-28T05:27:41;95384.44;;;7.37;70.37
40205;BME280;26963;42.666;23.366;2023-02-28T05:30:08;95362.03;;;7.22;70.11
40205;BME280;26963;42.666;23.366;2023-02-28T05:32:37;95522.22;;;8.36;70.32
40205;BME280;26963;42.666;23.366;2023-02-28T05:35:03;95512.34;;;8.31;69.66
40205;BME280;26963;42.666;23.366;2023-02-28T05:37:29;95510.75;;;8.35;69.44
40205;BME280;26963;42.666;23.366;2023-02-28T05:39:54;95541.44;;;8.43;69.50
40205;BME280;26963;42.666;23.366;2023-02-28T05:42:20;95539.88;;;8.47;69.68
40205;BME280;26963;42.666;23.366;2023-02-28T05:44:46;95461.34;;;8.07;69.46
40205;BME280;26963;42.666;23.366;2023-02-28T05:47:11;95476.28;;;8.13;68.93
40205;BME280;26963;42.666;23.366;2023-02-28T05:49:41;95531.59;;;8.48;69.39
40205;BME280;26963;42.666;23.366;2023-02-28T05:52:07;95436.78;;;7.84;69.47
40205;BME280;26963;42.666;23.366;2023-02-28T05:54:32;95374.06;;;7.40;69.30
40205;BME280;26963;42.666;23.366;2023-02-28T05:56:58;95512.06;;;8.27;69.74
40205;BME280;26963;42.666;23.366;2023-02-28T05:59:23;95489.59;;;8.08;69.98
40205;BME280;26963;42.666;23.366;2023-02-28T06:01:49;95546.25;;;8.51;69.45
40205;BME280;26963;42.666;23.366;2023-02-28T06:04:16;95552.16;;;8.58;68.97
40205;BME280;26963;42.666;23.366;2023-02-28T06:06:48;95544.69;;;8.55;68.74
40205;BME280;26963;42.666;23.366;2023-02-28T06:09:14;95463.47;;;7.94;69.32
40205;BME280;26963;42.666;23.366;2023-02-28T06:11:40;95500.03;;;8.14;69.69
40205;BME280;26963;42.666;23.366;2023-02-28T06:14:06;95538.72;;;8.27;70.47
40205;BME280;26963;42.666;23.366;2023-02-28T06:16:33;95485.25;;;7.76;70.99
40205;BME280;26963;42.666;23.366;2023-02-28T06:19:02;95370.38;;;6.93;71.48
40205;BME280;26963;42.666;23.366;2023-02-28T06:21:29;95526.59;;;7.89;71.72
40205;BME280;26963;42.666;23.366;2023-02-28T06:23:55;95525.25;;;7.86;71.73
40205;BME280;26963;42.666;23.366;2023-02-28T06:26:21;95531.72;;;8.00;71.81
40205;BME280;26963;42.666;23.366;2023-02-28T06:28:49;95521.56;;;7.97;71.29
40205;BME280;26963;42.666;23.366;2023-02-28T06:31:16;95531.19;;;8.04;71.69
40205;BME280;26963;42.666;23.366;2023-02-28T06:33:44;95425.91;;;7.27;71.82
40205;BME280;26963;42.666;23.366;2023-02-28T06:36:11;95563.44;;;8.07;72.23
40205;BME280;26963;42.666;23.366;2023-02-28T06:38:38;95523.44;;;8.02;71.99
40205;BME280;26963;42.666;23.366;2023-02-28T06:41:04;95535.47;;;8.10;71.65
40205;BME280;26963;42.666;23.366;2023-02-28T06:43:34;95552.78;;;8.07;72.47
40205;BME280;26963;42.666;23.366;2023-02-28T06:46:01;95512.16;;;7.74;72.74
40205;BME280;26963;42.666;23.366;2023-02-28T06:48:27;95554.06;;;7.94;72.79
40205;BME280;26963;42.666;23.366;2023-02-28T06:51:04;95526.28;;;7.85;72.42
40205;BME280;26963;42.666;23.366;2023-02-28T06:53:30;95499.03;;;7.62;72.26
40205;BME280;26963;42.666;23.366;2023-02-28T06:55:56;95502.19;;;7.54;72.51
40205;BME280;26963;42.666;23.366;2023-02-28T06:58:22;95555.56;;;7.80;72.48
40205;BME280;26963;42.666;23.366;2023-02-28T07:00:50;95560.38;;;7.78;73.02
40205;BME280;26963;42.666;23.366;2023-02-28T07:03:19;95553.16;;;7.73;72.38
40205;BME280;26963;42.666;23.366;2023-02-28T07:05:45;95564.66;;;7.84;72.89
40205;BME280;26963;42.666;23.366;2023-02-28T07:08:11;95500.06;;;7.56;73.09
40205;BME280;26963;42.666;23.366;2023-02-28T07:10:37;95554.09;;;7.99;72.37
40205;BME280;26963;42.666;23.366;2023-02-28T07:13:04;95565.03;;;8.03;72.09
40205;BME280;26963;42.666;23.366;2023-02-28T07:15:30;95560.97;;;7.95;72.81
40205;BME280;26963;42.666;23.366;2023-02-28T07:17:56;95557.25;;;7.96;72.50
40205;BME280;26963;42.666;23.366;2023-02-28T07:20:24;95481.91;;;7.48;72.21
40205;BME280;26963;42.666;23.366;2023-02-28T07:22:51;95538.81;;;7.84;72.64
40205;BME280;26963;42.666;23.366;2023-02-28T07:25:28;95401.00;;;6.96;72.10
40205;BME280;26963;42.666;23.366;2023-02-28T07:27:55;95551.97;;;8.12;71.81
40205;BME280;26963;42.666;23.366;2023-02-28T07:30:21;95562.16;;;8.20;71.49
40205;BME280;26963;42.666;23.366;2023-02-28T07:32:47;95551.75;;;8.13;71.49
40205;BME280;26963;42.666;23.366;2023-02-28T07:35:12;95503.66;;;7.88;71.58
40205;BME280;26963;42.666;23.366;2023-02-28T07:37:41;95428.13;;;7.51;71.17
40205;BME280;26963;42.666;23.366;2023-02-28T07:40:09;95555.91;;;8.68;70.28
40205;BME280;26963;42.666;23.366;2023-02-28T07:42:35;95551.94;;;8.75;70.26
40205;BME280;26963;42.666;23.366;2023-02-28T07:45:01;95476.09;;;8.40;69.66
40205;BME280;26963;42.666;23.366;2023-02-28T07:47:29;95562.09;;;9.20;69.40
40205;BME280;26963;42.666;23.366;2023-02-28T07:49:55;95557.25;;;9.37;68.99
40205;BME280;26963;42.666;23.366;2023-02-28T07:52:20;95560.16;;;9.56;68.31
40205;BME280;26963;42.666;23.366;2023-02-28T07:54:46;95565.22;;;9.78;68.48
40205;BME280;26963;42.666;23.366;2023-02-28T07:57:11;95477.16;;;9.48;67.47
40205;BME280;26963;42.666;23.366;2023-02-28T07:59:37;95545.56;;;10.19;66.45
40205;BME280;26963;42.666;23.366;2023-02-28T08:02:02;95481.03;;;9.81;66.19
40205;BME280;26963;42.666;23.366;2023-02-28T08:04:31;95522.78;;;10.32;65.83
40205;BME280;26963;42.666;23.366;2023-02-28T08:06:57;95520.09;;;10.42;65.28
40205;BME280;26963;42.666;23.366;2023-02-28T08:09:23;95557.34;;;10.73;65.04
40205;BME280;26963;42.666;23.366;2023-02-28T08:11:48;95538.31;;;10.80;64.89
40205;BME280;26963;42.666;23.366;2023-02-28T08:14:14;95551.03;;;10.99;64.34
40205;BME280;26963;42.666;23.366;2023-02-28T08:16:39;95511.53;;;10.80;64.13
40205;BME280;26963;42.666;23.366;2023-02-28T08:19:05;95546.09;;;11.16;63.77
40205;BME280;26963;42.666;23.366;2023-02-28T08:21:30;95467.72;;;10.71;64.11
40205;BME280;26963;42.666;23.366;2023-02-28T08:23:56;95475.09;;;10.84;64.35
40205;BME280;26963;42.666;23.366;2023-02-28T08:26:22;95549.25;;;11.18;64.86
40205;BME280;26963;42.666;23.366;2023-02-28T08:28:48;95547.69;;;11.17;65.41
40205;BME280;26963;42.666;23.366;2023-02-28T08:31:15;95396.94;;;10.13;65.40
40205;BME280;26963;42.666;23.366;2023-02-28T08:33:41;95547.69;;;11.17;65.53
40205;BME280;26963;42.666;23.366;2023-02-28T08:36:08;95509.84;;;10.95;65.83
40205;BME280;26963;42.666;23.366;2023-02-28T08:38:35;95389.66;;;10.24;65.78
40205;BME280;26963;42.666;23.366;2023-02-28T08:41:06;95419.22;;;10.43;65.81
40205;BME280;26963;42.666;23.366;2023-02-28T08:43:33;95531.97;;;11.35;66.36
40205;BME280;26963;42.666;23.366;2023-02-28T08:45:59;95542.56;;;11.50;65.89
40205;BME280;26963;42.666;23.366;2023-02-28T08:48:27;95552.56;;;11.69;65.69
40205;BME280;26963;42.666;23.366;2023-02-28T08:51:01;95551.44;;;11.75;64.23
40205;BME280;26963;42.666;23.366;2023-02-28T08:53:27;95548.28;;;11.68;65.19
40205;BME280;26963;42.666;23.366;2023-02-28T08:56:00;95369.91;;;10.54;64.78
40205;BME280;26963;42.666;23.366;2023-02-28T08:58:26;95556.25;;;11.78;64.32
40205;BME280;26963;42.666;23.366;2023-02-28T09:00:52;95534.56;;;11.74;64.18
40205;BME280;26963;42.666;23.366;2023-02-28T09:03:17;95547.16;;;12.03;63.73
40205;BME280;26963;42.666;23.366;2023-02-28T09:05:57;95512.09;;;11.95;63.40
40205;BME280;26963;42.666;23.366;2023-02-28T09:08:24;95489.03;;;11.94;63.18
40205;BME280;26963;42.666;23.366;2023-02-28T09:10:50;95536.78;;;12.16;62.90
40205;BME280;26963;42.666;23.366;2023-02-28T09:13:19;95548.16;;;12.32;62.27
40205;BME280;26963;42.666;23.366;2023-02-28T09:15:45;95544.00;;;12.20;62.39
40205;BME280;26963;42.666;23.366;2023-02-28T09:18:11;95507.78;;;11.99;62.43
40205;BME280;26963;42.666;23.366;2023-02-28T09:20:38;95483.56;;;11.80;62.64
40205;BME280;26963;42.666;23.366;2023-02-28T09:23:06;95483.66;;;11.94;63.04
40205;BME280;26963;42.666;23.366;2023-02-28T09:25:31;95541.50;;;12.48;63.30
40205;BME280;26963;42.666;23.366;2023-02-28T09:27:57;95494.63;;;12.21;61.99
40205;BME280;26963;42.666;23.366;2023-02-28T09:30:22;95459.09;;;12.30;61.71
40205;BME280;26963;42.666;23.366;2023-02-28T09:32:48;95482.81;;;12.61;60.54
40205;BME280;26963;42.666;23.366;2023-02-28T09:35:18;95544.81;;;13.16;59.80
40205;BME280;26963;42.666;23.366;2023-02-28T09:37:44;95565.63;;;13.25;59.15
40205;BME280;26963;42.666;23.366;2023-02-28T09:40:11;95549.59;;;13.19;59.05
40205;BME280;26963;42.666;23.366;2023-02-28T09:42:38;95482.50;;;12.81;58.99
40205;BME280;26963;42.666;23.366;2023-02-28T09:45:17;95511.44;;;12.84;58.78
40205;BME280;26963;42.666;23.366;2023-02-28T09:47:46;95536.16;;;13.19;59.13
40205;BME280;26963;42.666;23.366;2023-02-28T09:50:30;95520.06;;;13.00;58.72
40205;BME280;26963;42.666;23.366;2023-02-28T09:52:58;95528.19;;;13.14;58.84
40205;BME280;26963;42.666;23.366;2023-02-28T09:55:33;95489.53;;;12.77;58.79
40205;BME280;26963;42.666;23.366;2023-02-28T09:58:02;95514.84;;;12.90;58.84
40205;BME280;26963;42.666;23.366;2023-02-28T10:00:39;95530.81;;;13.00;59.06
40205;BME280;26963;42.666;23.366;2023-02-28T10:08:26;95536.75;;;13.16;57.91
40205;BME280;26963;42.666;23.366;2023-02-28T10:11:06;95536.66;;;13.21;58.00
40205;BME280;26963;42.666;23.366;2023-02-28T10:13:41;95531.72;;;13.29;58.00
40205;BME280;26963;42.666;23.366;2023-02-28T10:16:21;95504.28;;;13.13;57.71
40205;BME280;26963;42.666;23.366;2023-02-28T10:18:55;95447.25;;;13.02;57.46
40205;BME280;26963;42.666;23.366;2023-02-28T10:21:31;95449.47;;;13.14;57.02
40205;BME280;26963;42.666;23.366;2023-02-28T10:24:20;95495.16;;;13.47;56.00
40205;BME280;26963;42.666;23.366;2023-02-28T10:26:48;95520.66;;;13.63;56.00
40205;BME280;26963;42.666;23.366;2023-02-28T10:29:14;95503.13;;;13.52;56.36
40205;BME280;26963;42.666;23.366;2023-02-28T10:31:40;95482.00;;;13.45;55.45
40205;BME280;26963;42.666;23.366;2023-02-28T10:34:07;95484.00;;;13.53;55.56
40205;BME280;26963;42.666;23.366;2023-02-28T10:36:37;95484.00;;;13.67;56.13
40205;BME280;26963;42.666;23.366;2023-02-28T10:42:00;95451.13;;;13.84;54.63
40205;BME280;26963;42.666;23.366;2023-02-28T10:44:26;95483.91;;;14.14;54.17
40205;BME280;26963;42.666;23.366;2023-02-28T10:46:55;95485.78;;;14.28;54.36
40205;BME280;26963;42.666;23.366;2023-02-28T10:49:24;95473.91;;;14.29;54.24
40205;BME280;26963;42.666;23.366;2023-02-28T10:51:57;95487.28;;;14.34;54.14
40205;BME280;26963;42.666;23.366;2023-02-28T10:54:31;95460.63;;;14.32;53.75
40205;BME280;26963;42.666;23.366;2023-02-28T10:57:20;95444.31;;;14.29;53.35
40205;BME280;26963;42.666;23.366;2023-02-28T10:59:51;95458.47;;;14.21;53.07
40205;BME280;26963;42.666;23.366;2023-02-28T11:02:34;95454.06;;;14.25;53.64
40205;BME280;26963;42.666;23.366;2023-02-28T11:05:00;95456.28;;;14.23;53.97
40205;BME280;26963;42.666;23.366;2023-02-28T11:07:26;95443.91;;;14.22;53.50
40205;BME280;26963;42.666;23.366;2023-02-28T11:09:57;95437.38;;;14.00;53.25
40205;BME280;26963;42.666;23.366;2023-02-28T11:12:37;95367.00;;;13.70;53.50
40205;BME280;26963;42.666;23.366;2023-02-28T11:17:52;95448.50;;;14.21;53.50
40205;BME280;26963;42.666;23.366;2023-02-28T11:20:22;95456.13;;;14.05;53.71
40205;BME280;26963;42.666;23.366;2023-02-28T11:22:50;95419.28;;;13.78;54.13
40205;BME280;26963;42.666;23.366;2023-02-28T11:25:24;95444.06;;;13.89;54.34
40205;BME280;26963;42.666;23.366;2023-02-28T11:28:02;95400.66;;;13.53;54.28
40205;BME280;26963;42.666;23.366;2023-02-28T11:30:37;95388.41;;;13.47;53.95
40205;BME280;26963;42.666;23.366;2023-02-28T11:33:29;95447.34;;;13.72;54.30
40205;BME280;26963;42.666;23.366;2023-02-28T11:36:03;95436.03;;;13.61;54.75
40205;BME280;26963;42.666;23.366;2023-02-28T11:38:38;95428.31;;;13.40;54.95
40205;BME280;26963;42.666;23.366;2023-02-28T11:44:09;95352.13;;;13.03;55.66
40205;BME280;26963;42.666;23.366;2023-02-28T11:51:48;95419.69;;;13.71;55.42
40205;BME280;26963;42.666;23.366;2023-02-28T11:57:15;95406.53;;;13.42;55.31
40205;BME280;26963;42.666;23.366;2023-02-28T12:00:03;95422.69;;;13.56;55.45
40205;BME280;26963;42.666;23.366;2023-02-28T12:05:49;95418.09;;;13.42;55.75
40205;BME280;26963;42.666;23.366;2023-02-28T12:27:27;95415.91;;;13.44;55.33
40205;BME280;26963;42.666;23.366;2023-02-28T12:29:58;95430.44;;;13.43;55.28
40205;BME280;26963;42.666;23.366;2023-02-28T12:32:36;95412.59;;;13.47;54.80
40205;BME280;26963;42.666;23.366;2023-02-28T12:35:04;95417.88;;;13.52;55.67
40205;BME280;26963;42.666;23.366;2023-02-28T12:40:22;95413.22;;;13.44;55.46
40205;BME280;26963;42.666;23.366;2023-02-28T12:43:06;95360.91;;;13.09;55.25
40205;BME280;26963;42.666;23.366;2023-02-28T12:45:43;95387.97;;;13.12;55.37
40205;BME280;26963;42.666;23.366;2023-02-28T12:48:15;95352.13;;;12.89;54.45
40205;BME280;26963;42.666;23.366;2023-02-28T12:50:43;95410.91;;;13.37;54.42
40205;BME280;26963;42.666;23.366;2023-02-28T12:53:15;95383.97;;;12.96;55.07
40205;BME280;26963;42.666;23.366;2023-02-28T12:58:51;95411.28;;;13.31;54.31
40205;BME280;26963;42.666;23.366;2023-02-28T13:09:59;95414.25;;;13.15;55.94
40205;BME280;26963;42.666;23.366;2023-02-28T13:12:25;95418.44;;;13.21;55.02
40205;BME280;26963;42.666;23.366;2023-02-28T13:17:39;95399.69;;;12.88;55.85
40205;BME280;26963;42.666;23.366;2023-02-28T13:20:16;95403.63;;;12.77;56.55
40205;BME280;26963;42.666;23.366;2023-02-28T13:22:44;95398.25;;;12.77;56.54
40205;BME280;26963;42.666;23.366;2023-02-28T13:27:55;95392.66;;;12.73;56.97
40205;BME280;26963;42.666;23.366;2023-02-28T13:35:45;95391.13;;;12.53;56.44
40205;BME280;26963;42.666;23.366;2023-02-28T13:38:21;95338.75;;;12.04;56.27
40205;BME280;26963;42.666;23.366;2023-02-28T13:40:47;95385.00;;;12.34;56.69
40205;BME280;26963;42.666;23.366;2023-02-28T13:43:16;95404.94;;;12.28;56.87
40205;BME280;26963;42.666;23.366;2023-02-28T13:46:06;95398.31;;;12.39;57.22
40205;BME280;26963;42.666;23.366;2023-02-28T13:48:33;95398.59;;;12.18;57.14
40205;BME280;26963;42.666;23.366;2023-02-28T13:50:59;95401.66;;;12.31;57.30
40205;BME280;26963;42.666;23.366;2023-02-28T13:53:50;95396.50;;;12.34;57.55
40205;BME280;26963;42.666;23.366;2023-02-28T13:56:43;95396.88;;;12.28;57.26
40205;BME280;26963;42.666;23.366;2023-02-28T14:04:54;95391.59;;;12.03;58.06
40205;BME280;26963;42.666;23.366;2023-02-28T14:07:27;95387.00;;;11.85;58.45
40205;BME280;26963;42.666;23.366;2023-02-28T14:10:03;95342.31;;;11.56;59.59
40205;BME280;26963;42.666;23.366;2023-02-28T14:13:12;95409.16;;;12.15;60.04
40205;BME280;26963;42.666;23.366;2023-02-28T14:18:19;95402.25;;;12.28;60.22
40205;BME280;26963;42.666;23.366;2023-02-28T14:20:47;95394.69;;;12.30;58.72
40205;BME280;26963;42.666;23.366;2023-02-28T14:31:44;95365.59;;;11.61;59.35
40205;BME280;26963;42.666;23.366;2023-02-28T14:34:35;95399.78;;;11.69;60.11
40205;BME280;26963;42.666;23.366;2023-02-28T14:37:03;95345.50;;;11.39;59.99
40205;BME280;26963;42.666;23.366;2023-02-28T14:39:30;95395.84;;;11.61;60.64
40205;BME280;26963;42.666;23.366;2023-02-28T14:41:56;95360.88;;;11.28;60.62
40205;BME280;26963;42.666;23.366;2023-02-28T14:44:28;95398.50;;;11.42;61.26
40205;BME280;26963;42.666;23.366;2023-02-28T14:47:02;95415.59;;;11.46;61.99
40205;BME280;26963;42.666;23.366;2023-02-28T14:49:42;95406.81;;;11.16;62.16
40205;BME280;26963;42.666;23.366;2023-02-28T14:52:15;95351.41;;;10.87;62.37
40205;BME280;26963;42.666;23.366;2023-02-28T14:54:43;95390.16;;;11.19;62.34
40205;BME280;26963;42.666;23.366;2023-02-28T14:57:32;95409.31;;;11.32;62.26
40205;BME280;26963;42.666;23.366;2023-02-28T15:00:19;95422.53;;;11.23;62.52
40205;BME280;26963;42.666;23.366;2023-02-28T15:02:46;95399.28;;;11.18;62.65
40205;BME280;26963;42.666;23.366;2023-02-28T15:07:48;95392.56;;;11.21;62.52
40205;BME280;26963;42.666;23.366;2023-02-28T15:10:26;95411.03;;;11.22;62.20
40205;BME280;26963;42.666;23.366;2023-02-28T15:13:05;95373.25;;;11.00;62.58